createdAt,value
2018-11-03T00:00:55.496Z,50.60
2018-11-03T00:03:23.376Z,48.90
2018-11-03T00:05:51.345Z,44.90
2018-11-03T00:08:19.197Z,48.37
2018-11-03T00:10:47.036Z,48.70
2018-11-03T00:13:14.947Z,46.23
2018-11-03T00:15:43.809Z,50.30
2018-11-03T00:18:11.691Z,46.17
2018-11-03T00:20:39.561Z,48.50
2018-11-03T00:23:07.984Z,49.33
2018-11-03T00:25:35.912Z,44.63
2018-11-03T00:28:03.777Z,45.47
2018-11-03T00:30:31.612Z,43.23
2018-11-03T00:32:59.523Z,45.50
2018-11-03T00:35:27.677Z,43.10
2018-11-03T00:37:55.773Z,46.23
2018-11-03T00:40:23.689Z,40.80
2018-11-03T00:42:51.590Z,47.00
2018-11-03T00:45:20.470Z,42.97
2018-11-03T00:47:49.336Z,44.47
2018-11-03T00:50:17.239Z,43.13
2018-11-03T00:52:45.169Z,46.90
2018-11-03T00:55:13.548Z,43.10
2018-11-03T00:57:42.896Z,43.30
2018-11-03T01:00:12.256Z,43.87
2018-11-03T01:02:40.833Z,47.20
2018-11-03T01:05:09.198Z,39.67
2018-11-03T01:07:37.972Z,42.93
2018-11-03T01:10:05.936Z,44.37
2018-11-03T01:12:34.249Z,41.63
2018-11-03T01:15:02.108Z,39.70
2018-11-03T01:17:30.015Z,45.20
2018-11-03T01:19:57.853Z,45.53
2018-11-03T01:22:25.764Z,81.90
2018-11-03T01:24:53.736Z,53.00
2018-11-03T01:27:21.696Z,44.93
2018-11-03T01:29:49.572Z,45.87
2018-11-03T01:32:17.517Z,50.43
2018-11-03T01:34:45.403Z,48.73
2018-11-03T01:37:13.245Z,47.13
2018-11-03T01:39:41.113Z,42.90
2018-11-03T01:42:09.008Z,39.33
2018-11-03T01:44:36.944Z,38.90
2018-11-03T01:47:04.900Z,40.40
2018-11-03T01:49:32.745Z,40.40
2018-11-03T01:52:00.688Z,44.17
2018-11-03T01:54:28.649Z,39.50
2018-11-03T01:56:56.565Z,36.33
2018-11-03T01:59:24.500Z,40.80
2018-11-03T02:01:52.459Z,42.53
2018-11-03T02:04:20.348Z,43.77
2018-11-03T02:06:48.267Z,39.50
2018-11-03T02:09:16.164Z,49.27
2018-11-03T02:11:44.068Z,43.37
2018-11-03T02:14:11.940Z,43.73
2018-11-03T02:16:39.829Z,39.53
2018-11-03T02:19:07.676Z,43.97
2018-11-03T02:21:35.597Z,44.87
2018-11-03T02:24:03.525Z,46.27
2018-11-03T02:26:31.367Z,44.93
2018-11-03T02:28:59.268Z,45.47
2018-11-03T02:31:27.128Z,46.50
2018-11-03T02:33:55.013Z,45.03
2018-11-03T02:36:22.873Z,47.10
2018-11-03T02:38:50.780Z,44.20
2018-11-03T02:41:18.692Z,47.30
2018-11-03T02:43:47.258Z,44.70
2018-11-03T02:46:15.212Z,42.47
2018-11-03T02:48:43.104Z,41.50
2018-11-03T02:51:11.008Z,47.33
2018-11-03T02:53:38.911Z,45.60
2018-11-03T02:56:06.872Z,45.60
2018-11-03T02:58:34.772Z,43.30
2018-11-03T03:01:02.668Z,43.23
2018-11-03T03:03:30.550Z,40.87
2018-11-03T03:05:58.392Z,39.97
2018-11-03T03:08:26.323Z,40.83
2018-11-03T03:10:54.197Z,45.80
2018-11-03T03:13:22.189Z,40.73
2018-11-03T03:15:50.073Z,41.43
2018-11-03T03:18:17.988Z,42.77
2018-11-03T03:20:45.924Z,39.83
2018-11-03T03:23:13.892Z,39.97
2018-11-03T03:25:42.749Z,40.90
2018-11-03T03:28:10.628Z,43.77
2018-11-03T03:30:38.496Z,40.83
2018-11-03T03:33:06.356Z,41.93
2018-11-03T03:35:35.261Z,41.07
2018-11-03T03:38:03.092Z,41.67
2018-11-03T03:40:31.027Z,39.67
2018-11-03T03:42:59.096Z,45.63
2018-11-03T03:45:27.158Z,42.03
2018-11-03T03:47:55.025Z,41.10
2018-11-03T03:50:22.928Z,36.90
2018-11-03T03:52:50.851Z,37.83
2018-11-03T03:55:18.679Z,38.93
2018-11-03T03:57:46.586Z,37.13
2018-11-03T04:00:15.428Z,38.63
2018-11-03T04:02:43.316Z,37.97
2018-11-03T04:05:11.196Z,41.10
2018-11-03T04:07:39.164Z,38.90
2018-11-03T04:10:07.564Z,40.17
2018-11-03T04:12:35.489Z,40.13
2018-11-03T04:15:03.385Z,38.27
2018-11-03T04:17:31.243Z,37.10
2018-11-03T04:19:59.122Z,35.20
2018-11-03T04:22:27.048Z,34.00
2018-11-03T04:24:55.959Z,37.67
2018-11-03T04:27:23.846Z,36.60
2018-11-03T04:29:51.737Z,40.77
2018-11-03T04:32:19.656Z,37.00
2018-11-03T04:34:47.519Z,31.27
2018-11-03T04:37:15.425Z,38.37
2018-11-03T04:39:43.376Z,32.70
2018-11-03T04:42:11.219Z,38.63
2018-11-03T04:44:39.133Z,40.60
2018-11-03T04:47:07.027Z,38.40
2018-11-03T04:49:34.948Z,44.17
2018-11-03T04:52:02.796Z,39.00
2018-11-03T04:54:31.700Z,35.73
2018-11-03T04:56:59.580Z,35.50
2018-11-03T04:59:27.412Z,42.23
2018-11-03T05:01:55.300Z,32.57
2018-11-03T05:04:23.143Z,34.20
2018-11-03T05:06:51.045Z,34.47
2018-11-03T05:09:18.920Z,34.67
2018-11-03T05:11:47.797Z,39.60
2018-11-03T05:14:15.648Z,34.80
2018-11-03T05:16:44.576Z,37.87
2018-11-03T05:19:13.450Z,42.40
2018-11-03T05:21:41.316Z,36.00
2018-11-03T05:24:09.270Z,42.20
2018-11-03T05:26:37.133Z,38.87
2018-11-03T05:29:05.048Z,38.27
2018-11-03T05:31:32.967Z,36.10
2018-11-03T05:34:00.876Z,36.83
2018-11-03T05:36:28.792Z,40.73
2018-11-03T05:38:56.666Z,37.00
2018-11-03T05:41:24.552Z,38.27
2018-11-03T05:43:52.429Z,42.00
2018-11-03T05:46:20.432Z,39.57
2018-11-03T05:48:48.332Z,36.53
2018-11-03T05:51:16.224Z,38.87
2018-11-03T05:53:44.186Z,40.77
2018-11-03T05:56:12.028Z,40.40
2018-11-03T05:58:39.993Z,43.57
2018-11-03T06:01:07.850Z,37.43
2018-11-03T06:03:35.740Z,41.77
2018-11-03T06:06:03.636Z,39.20
2018-11-03T06:08:31.614Z,40.70
2018-11-03T06:10:59.451Z,43.70
2018-11-03T06:13:27.315Z,40.73
2018-11-03T06:15:55.216Z,47.83
2018-11-03T06:18:23.136Z,44.70
2018-11-03T06:20:52.077Z,41.70
2018-11-03T06:23:20.059Z,39.90
2018-11-03T06:25:47.913Z,45.13
2018-11-03T06:28:15.882Z,48.30
2018-11-03T06:30:43.725Z,43.63
2018-11-03T06:33:11.591Z,47.33
2018-11-03T06:35:39.429Z,46.70
2018-11-03T06:38:07.370Z,41.07
2018-11-03T06:40:35.282Z,47.60
2018-11-03T06:43:03.155Z,42.77
2018-11-03T06:45:30.991Z,44.83
2018-11-03T06:47:59.944Z,50.10
2018-11-03T06:50:27.879Z,43.50
2018-11-03T06:52:55.837Z,46.30
2018-11-03T06:55:23.716Z,46.20
2018-11-03T06:57:51.632Z,43.37
2018-11-03T07:00:19.552Z,42.30
2018-11-03T07:02:47.433Z,46.37
2018-11-03T07:05:15.340Z,42.73
2018-11-03T07:07:43.242Z,39.00
2018-11-03T07:10:11.496Z,44.33
2018-11-03T07:12:39.566Z,46.53
2018-11-03T07:15:07.414Z,45.70
2018-11-03T07:17:36.798Z,47.90
2018-11-03T07:20:05.161Z,41.13
2018-11-03T07:22:33.020Z,43.67
2018-11-03T07:25:00.865Z,39.50
2018-11-03T07:27:28.793Z,43.77
2018-11-03T07:29:56.741Z,41.77
2018-11-03T07:32:24.621Z,39.13
2018-11-03T07:34:52.792Z,41.20
2018-11-03T07:37:20.760Z,38.10
2018-11-03T07:39:48.672Z,43.70
2018-11-03T07:42:16.580Z,43.27
2018-11-03T07:44:44.443Z,48.90
2018-11-03T07:47:12.297Z,37.50
2018-11-03T07:49:40.168Z,42.43
2018-11-03T07:52:08.008Z,43.45
2018-11-03T07:54:35.948Z,42.70
2018-11-03T07:57:03.800Z,42.97
2018-11-03T07:59:31.696Z,42.97
2018-11-03T08:01:59.632Z,39.37
2018-11-03T08:04:27.592Z,40.40
2018-11-03T08:06:55.471Z,43.20
2018-11-03T08:09:23.376Z,43.47
2018-11-03T08:11:51.296Z,37.90
2018-11-03T08:14:19.229Z,40.73
2018-11-03T08:16:47.091Z,41.83
2018-11-03T08:19:14.976Z,37.53
2018-11-03T08:21:42.834Z,37.10
2018-11-03T08:24:10.711Z,41.57
2018-11-03T08:26:38.564Z,42.80
2018-11-03T08:29:07.473Z,41.13
2018-11-03T08:31:35.406Z,44.63
2018-11-03T08:34:03.345Z,46.83
2018-11-03T08:36:31.267Z,46.10
2018-11-03T08:38:59.136Z,38.60
2018-11-03T08:41:27.051Z,36.70
2018-11-03T08:43:54.940Z,38.00
2018-11-03T08:46:22.872Z,34.53
2018-11-03T08:48:50.957Z,35.10
2018-11-03T08:51:19.852Z,35.33
2018-11-03T08:53:47.783Z,36.07
2018-11-03T08:56:15.659Z,35.70
2018-11-03T08:58:43.587Z,33.43
2018-11-03T09:01:11.457Z,32.20
2018-11-03T09:03:39.328Z,28.60
2018-11-03T09:06:07.245Z,33.13
2018-11-03T09:08:35.240Z,32.13
2018-11-03T09:11:03.156Z,29.43
2018-11-03T09:13:31.012Z,31.00
2018-11-03T09:15:59.952Z,30.00
2018-11-03T09:18:27.856Z,34.33
2018-11-03T09:20:55.755Z,28.47
2018-11-03T09:23:23.609Z,33.70
2018-11-03T09:25:51.480Z,31.80
2018-11-03T09:28:19.340Z,34.70
2018-11-03T09:30:47.304Z,29.67
2018-11-03T09:33:15.145Z,31.40
2018-11-03T09:35:43.042Z,32.30
2018-11-03T09:38:10.906Z,33.37
2018-11-03T09:40:38.824Z,35.60
2018-11-03T09:43:06.742Z,32.27
2018-11-03T09:45:34.600Z,31.43
2018-11-03T09:48:02.508Z,29.10
2018-11-03T09:50:30.486Z,25.33
2018-11-03T09:52:58.346Z,38.17
2018-11-03T09:55:26.308Z,27.20
2018-11-03T09:57:54.163Z,25.73
2018-11-03T10:00:22.493Z,27.73
2018-11-03T10:02:50.436Z,29.53
2018-11-03T10:05:18.365Z,29.03
2018-11-03T10:07:46.220Z,26.97
2018-11-03T10:10:15.315Z,31.80
2018-11-03T10:12:43.176Z,30.30
2018-11-03T10:15:11.941Z,25.03
2018-11-03T10:17:39.828Z,27.03
2018-11-03T10:20:08.091Z,29.43
2018-11-03T10:22:36.501Z,25.03
2018-11-03T10:25:05.846Z,26.00
2018-11-03T10:27:33.828Z,26.40
2018-11-03T10:30:01.736Z,34.60
2018-11-03T10:32:29.627Z,32.43
2018-11-03T10:34:58.469Z,27.97
2018-11-03T10:37:26.348Z,24.77
2018-11-03T10:39:55.263Z,24.30
2018-11-03T10:42:23.190Z,24.97
2018-11-03T10:44:51.080Z,24.10
2018-11-03T10:47:18.966Z,23.63
2018-11-03T10:49:47.840Z,29.07
2018-11-03T10:52:15.732Z,21.80
2018-11-03T10:54:43.664Z,18.53
2018-11-03T10:57:11.604Z,22.13
2018-11-03T10:59:39.550Z,23.60
2018-11-03T11:02:12.798Z,26.97
2018-11-03T11:04:46.295Z,24.23
2018-11-03T11:07:20.639Z,25.13
2018-11-03T11:09:54.111Z,24.97
2018-11-03T11:12:27.459Z,24.60
2018-11-03T11:14:55.427Z,23.13
2018-11-03T11:17:23.324Z,17.17
2018-11-03T11:19:51.260Z,18.97
2018-11-03T11:22:19.083Z,19.23
2018-11-03T11:24:47.174Z,25.00
2018-11-03T11:27:14.876Z,20.17
2018-11-03T11:29:42.817Z,19.27
2018-11-03T11:32:10.711Z,22.07
2018-11-03T11:34:38.783Z,20.30
2018-11-03T11:37:06.717Z,17.90
2018-11-03T11:39:34.657Z,16.30
2018-11-03T11:42:03.555Z,17.30
2018-11-03T11:44:31.471Z,23.50
2018-11-03T11:46:59.304Z,17.90
2018-11-03T11:49:27.180Z,15.17
2018-11-03T11:51:55.128Z,15.07
2018-11-03T11:54:23.041Z,16.80
2018-11-03T11:56:51.014Z,16.73
2018-11-03T11:59:18.933Z,15.23
2018-11-03T12:01:46.790Z,14.27
2018-11-03T12:04:14.678Z,15.17
2018-11-03T12:06:42.507Z,13.50
2018-11-03T12:09:10.666Z,17.47
2018-11-03T12:11:38.712Z,15.17
2018-11-03T12:14:06.532Z,19.20
2018-11-03T12:16:34.471Z,16.70
2018-11-03T12:19:02.371Z,14.40
2018-11-03T12:21:30.389Z,13.33
2018-11-03T12:23:58.221Z,20.97
2018-11-03T12:26:26.116Z,18.97
2018-11-03T12:28:53.992Z,19.00
2018-11-03T12:31:21.888Z,14.20
2018-11-03T12:33:50.080Z,15.93
2018-11-03T12:36:17.931Z,20.87
2018-11-03T12:38:45.796Z,16.07
2018-11-03T12:41:13.766Z,13.33
2018-11-03T12:43:41.576Z,16.00
2018-11-03T12:46:09.479Z,15.30
2018-11-03T12:48:37.336Z,15.53
2018-11-03T12:51:05.253Z,14.23
2018-11-03T12:53:33.132Z,13.93
2018-11-03T12:56:01.016Z,16.73
2018-11-03T12:58:28.860Z,15.00
2018-11-03T13:00:56.765Z,13.53
2018-11-03T13:03:24.595Z,14.53
2018-11-03T13:05:52.496Z,13.77
2018-11-03T13:08:20.358Z,17.47
2018-11-03T13:10:48.198Z,16.20
2018-11-03T13:13:16.076Z,12.40
2018-11-03T13:15:44.086Z,10.93
2018-11-03T13:18:11.930Z,15.13
2018-11-03T13:20:39.775Z,14.00
2018-11-03T13:23:07.668Z,9.93
2018-11-03T13:25:35.481Z,16.40
2018-11-03T13:28:03.342Z,12.33
2018-11-03T13:30:31.228Z,13.60
2018-11-03T13:32:59.143Z,14.27
2018-11-03T13:35:27.091Z,22.53
2018-11-03T13:37:54.945Z,16.23
2018-11-03T13:40:22.790Z,15.53
2018-11-03T13:42:50.671Z,13.30
2018-11-03T13:45:18.551Z,18.10
2018-11-03T13:47:46.473Z,15.53
2018-11-03T13:50:15.491Z,21.33
2018-11-03T13:52:44.420Z,15.27
2018-11-03T13:55:12.390Z,17.70
2018-11-03T13:57:41.191Z,14.47
2018-11-03T14:00:11.299Z,15.33
2018-11-03T14:02:40.891Z,13.23
2018-11-03T14:05:09.300Z,12.00
2018-11-03T14:07:37.343Z,11.60
2018-11-03T14:10:05.680Z,9.63
2018-11-03T14:12:33.562Z,12.70
2018-11-03T14:15:01.439Z,9.97
2018-11-03T14:17:29.320Z,14.33
2018-11-03T14:19:57.163Z,15.87
2018-11-03T14:22:25.045Z,11.33
2018-11-03T14:24:52.932Z,15.60
2018-11-03T14:27:20.797Z,9.27
2018-11-03T14:29:48.669Z,11.93
2018-11-03T14:32:16.504Z,9.33
2018-11-03T14:34:44.348Z,9.23
2018-11-03T14:37:12.275Z,13.53
2018-11-03T14:39:40.096Z,8.60
2018-11-03T14:42:08.008Z,9.80
2018-11-03T14:44:35.833Z,9.27
2018-11-03T14:47:03.740Z,10.20
2018-11-03T14:49:31.572Z,16.27
2018-11-03T14:51:59.465Z,10.20
2018-11-03T14:54:27.404Z,11.50
2018-11-03T14:56:55.289Z,11.47
2018-11-03T14:59:23.154Z,10.93
2018-11-03T15:01:51.077Z,15.60
2018-11-03T15:04:18.992Z,8.33
2018-11-03T15:06:46.840Z,9.17
2018-11-03T15:09:14.735Z,15.20
2018-11-03T15:11:42.572Z,13.47
2018-11-03T15:14:10.556Z,14.93
2018-11-03T15:16:38.852Z,10.27
2018-11-03T15:19:06.704Z,12.27
2018-11-03T15:21:34.555Z,13.23
2018-11-03T15:24:02.416Z,13.87
2018-11-03T15:26:30.313Z,11.87
2018-11-03T15:28:58.175Z,14.77
2018-11-03T15:31:26.028Z,9.03
2018-11-03T15:33:53.977Z,12.33
2018-11-03T15:36:21.844Z,12.00
2018-11-03T15:38:49.732Z,14.43
2018-11-03T15:41:17.632Z,11.03
2018-11-03T15:43:45.470Z,15.00
2018-11-03T15:46:13.346Z,14.63
2018-11-03T15:48:41.200Z,16.03
2018-11-03T15:51:09.076Z,10.43
2018-11-03T15:53:36.952Z,11.03
2018-11-03T15:56:05.108Z,16.00
2018-11-03T15:58:32.960Z,15.07
2018-11-03T16:01:00.808Z,16.23
2018-11-03T16:03:28.696Z,12.60
2018-11-03T16:05:56.560Z,15.10
2018-11-03T16:08:24.460Z,16.10
2018-11-03T16:10:53.330Z,12.20
2018-11-03T16:13:21.219Z,18.20
2018-11-03T16:15:49.090Z,13.60
2018-11-03T16:18:16.909Z,17.47
2018-11-03T16:20:44.792Z,18.07
2018-11-03T16:23:13.664Z,15.30
2018-11-03T16:25:41.641Z,16.57
2018-11-03T16:28:09.569Z,15.80
2018-11-03T16:30:37.528Z,22.23
2018-11-03T16:33:05.424Z,14.57
2018-11-03T16:35:33.362Z,19.53
2018-11-03T16:38:01.217Z,20.33
2018-11-03T16:40:29.079Z,17.13
2018-11-03T16:42:57.987Z,17.53
2018-11-03T16:45:25.968Z,22.17
2018-11-03T16:47:53.782Z,25.93
2018-11-03T16:50:22.660Z,17.80
2018-11-03T16:52:50.572Z,17.23
2018-11-03T16:55:18.543Z,21.40
2018-11-03T16:57:46.346Z,27.43
2018-11-03T17:00:15.735Z,22.37
2018-11-03T17:02:43.799Z,23.10
2018-11-03T17:05:12.894Z,24.83
2018-11-03T17:07:40.800Z,34.83
2018-11-03T17:10:10.287Z,24.67
2018-11-03T17:12:38.518Z,28.53
2018-11-03T17:15:06.383Z,24.87
2018-11-03T17:17:34.332Z,24.43
2018-11-03T17:20:02.201Z,26.13
2018-11-03T17:22:30.061Z,27.30
2018-11-03T17:24:57.934Z,27.80
2018-11-03T17:27:25.951Z,21.77
2018-11-03T17:29:53.862Z,28.03
2018-11-03T17:32:21.720Z,28.13
2018-11-03T17:34:50.630Z,29.90
2018-11-03T17:37:18.525Z,31.70
2018-11-03T17:39:46.383Z,25.23
2018-11-03T17:42:14.261Z,30.17
2018-11-03T17:44:42.212Z,32.30
2018-11-03T17:47:11.120Z,29.23
2018-11-03T17:49:39.044Z,34.30
2018-11-03T17:52:06.924Z,26.83
2018-11-03T17:54:34.878Z,25.80
2018-11-03T17:57:02.732Z,37.17
2018-11-03T17:59:30.672Z,38.33
2018-11-03T18:01:58.722Z,40.47
2018-11-03T18:04:27.004Z,38.93
2018-11-03T18:06:54.931Z,39.40
2018-11-03T18:09:22.810Z,40.53
2018-11-03T18:11:50.675Z,44.33
2018-11-03T18:14:18.586Z,39.03
2018-11-03T18:16:46.524Z,41.87
2018-11-03T18:19:14.359Z,40.43
2018-11-03T18:21:42.300Z,44.83
2018-11-03T18:24:10.196Z,45.33
2018-11-03T18:26:38.144Z,55.30
2018-11-03T18:29:05.986Z,49.80
2018-11-03T18:31:33.917Z,47.33
2018-11-03T18:34:01.788Z,47.90
2018-11-03T18:36:30.685Z,53.40
2018-11-03T18:38:58.536Z,54.33
2018-11-03T18:41:26.489Z,59.00
2018-11-03T18:43:54.384Z,54.73
2018-11-03T18:46:22.250Z,48.20
2018-11-03T18:48:50.224Z,51.03
2018-11-03T18:51:18.055Z,53.17
2018-11-03T18:53:46.956Z,51.67
2018-11-03T18:56:14.893Z,49.67
2018-11-03T18:58:42.788Z,50.03
2018-11-03T19:01:10.663Z,63.70
2018-11-03T19:03:38.544Z,69.97
2018-11-03T19:06:06.422Z,66.57
2018-11-03T19:08:34.656Z,53.10
2018-11-03T19:11:02.467Z,57.80
2018-11-03T19:13:31.354Z,56.90
2018-11-03T19:15:59.177Z,61.93
2018-11-03T19:18:28.084Z,53.13
2018-11-03T19:20:56.024Z,65.23
2018-11-03T19:23:23.990Z,57.20
2018-11-03T19:25:51.887Z,59.73
2018-11-03T19:28:19.794Z,57.30
2018-11-03T19:30:47.664Z,55.80
2018-11-03T19:33:16.552Z,58.00
2018-11-03T19:35:45.423Z,56.47
2018-11-03T19:38:13.310Z,70.70
2018-11-03T19:40:41.205Z,60.93
2018-11-03T19:43:09.112Z,65.83
2018-11-03T19:45:36.980Z,59.13
2018-11-03T19:48:05.259Z,69.43
2018-11-03T19:50:33.137Z,57.90
2018-11-03T19:53:02.036Z,52.73
2018-11-03T19:55:30.028Z,51.33
2018-11-03T19:57:57.983Z,60.83
2018-11-03T20:00:26.874Z,56.80
2018-11-03T20:02:54.760Z,51.43
2018-11-03T20:05:22.646Z,64.23
2018-11-03T20:07:50.551Z,60.77
2018-11-03T20:10:18.407Z,61.33
2018-11-03T20:12:46.268Z,62.27
2018-11-03T20:15:14.235Z,71.53
2018-11-03T20:17:42.546Z,65.47
2018-11-03T20:20:11.709Z,70.73
2018-11-03T20:22:39.584Z,71.97
2018-11-03T20:25:08.139Z,66.60
2018-11-03T20:27:36.088Z,65.13
2018-11-03T20:30:04.223Z,76.10
2018-11-03T20:32:32.088Z,75.47
2018-11-03T20:34:59.973Z,78.03
2018-11-03T20:37:27.884Z,74.90
2018-11-03T20:39:55.752Z,72.90
2018-11-03T20:42:23.663Z,70.90
2018-11-03T20:44:51.526Z,75.40
2018-11-03T20:47:19.360Z,70.53
2018-11-03T20:49:47.248Z,73.07
2018-11-03T20:52:16.140Z,72.37
2018-11-03T20:54:44.007Z,73.07
2018-11-03T20:57:11.859Z,69.47
2018-11-03T20:59:39.752Z,69.60
2018-11-03T21:02:07.698Z,68.17
2018-11-03T21:04:35.480Z,69.67
2018-11-03T21:07:03.391Z,65.00
2018-11-03T21:09:31.332Z,72.23
2018-11-03T21:12:00.244Z,73.10
2018-11-03T21:14:28.190Z,63.30
2018-11-03T21:16:56.068Z,66.35
2018-11-03T21:19:23.957Z,63.10
2018-11-03T21:21:51.852Z,62.27
2018-11-03T21:24:19.807Z,70.33
2018-11-03T21:26:47.652Z,71.20
2018-11-03T21:29:15.560Z,75.00
2018-11-03T21:31:43.511Z,71.60
2018-11-03T21:34:11.548Z,68.37
2018-11-03T21:36:39.441Z,76.93
2018-11-03T21:39:07.644Z,66.17
2018-11-03T21:41:35.547Z,66.60
2018-11-03T21:44:03.464Z,73.10
2018-11-03T21:46:31.450Z,76.53
2018-11-03T21:48:59.336Z,76.10
2018-11-03T21:51:27.236Z,66.27
2018-11-03T21:53:55.193Z,73.50
2018-11-03T21:56:23.170Z,68.10
2018-11-03T21:58:52.013Z,60.73
2018-11-03T22:01:19.903Z,69.23
2018-11-03T22:03:47.779Z,64.87
2018-11-03T22:06:15.705Z,59.63
2018-11-03T22:08:43.649Z,61.67
2018-11-03T22:11:11.616Z,63.57
2018-11-03T22:13:39.522Z,59.67
2018-11-03T22:16:07.476Z,69.90
2018-11-03T22:18:35.345Z,63.47
2018-11-03T22:21:03.232Z,57.60
2018-11-03T22:23:31.132Z,57.73
2018-11-03T22:25:58.964Z,66.57
2018-11-03T22:28:26.844Z,60.60
2018-11-03T22:30:54.683Z,60.60
2018-11-03T22:33:22.548Z,65.33
2018-11-03T22:35:50.447Z,59.47
2018-11-03T22:38:19.211Z,54.20
2018-11-03T22:40:47.073Z,56.83
2018-11-03T22:43:14.969Z,55.70
2018-11-03T22:45:42.843Z,53.00
2018-11-03T22:48:10.696Z,63.83
2018-11-03T22:50:38.547Z,54.87
2018-11-03T22:53:06.460Z,59.13
2018-11-03T22:55:34.448Z,61.70
2018-11-03T22:58:02.374Z,60.57
2018-11-03T23:00:30.212Z,57.20
2018-11-03T23:02:58.123Z,57.43
2018-11-03T23:05:26.053Z,58.40
2018-11-03T23:07:53.996Z,68.30
2018-11-03T23:10:21.899Z,60.53
2018-11-03T23:12:49.858Z,57.67
2018-11-03T23:15:17.737Z,59.20
2018-11-03T23:17:45.568Z,59.40
2018-11-03T23:20:14.248Z,59.13
2018-11-03T23:22:42.160Z,62.70
2018-11-03T23:25:10.496Z,60.03
2018-11-03T23:27:38.376Z,62.57
2018-11-03T23:30:07.333Z,59.07
2018-11-03T23:32:35.163Z,63.10
2018-11-03T23:35:03.054Z,65.23
2018-11-03T23:37:30.937Z,67.40
2018-11-03T23:39:58.861Z,64.60
2018-11-03T23:42:26.688Z,63.23
2018-11-03T23:44:54.691Z,64.50
2018-11-03T23:47:22.532Z,56.63
2018-11-03T23:49:50.428Z,62.60
2018-11-03T23:52:22.636Z,64.57
2018-11-03T23:54:50.492Z,61.67
2018-11-03T23:57:18.432Z,72.70
2018-11-03T23:59:46.371Z,59.87
